Tracy, Minnesota
Current Conditions -  °F | °C
As of 1:53 PM on Tuesday 21 Oct 2014 (Local Time) from KTKC Reporting Station
Clear Clear  
Wind Chill: 69°   Ceiling: Unl
Heat Index: 69°   Visibility: 10mi
Dew Point: 42°   Wind: 16mph
Humidity: 38%   Direction: 150°SSE
Pressure: 30.05"   Gusts: 22mph
Location:  44.23°N, 95.62°W
Report Text: KTKC 211853Z AUTO 15014G19KT 10SM CLR 21/06 A3005 RMK AO2 T02060057
Loading
Personal Weather Stations






























Interactive Weather Map
Tropical Storm Tracking
New forecast layout! Learn more

10-Day Weather Forecast

Advertisements
Track Severe Weather on mobile